LJPZ/POW METAR and TAF weather

Enter ICAO airport designator
Station Type Date Time Source
LJPZ METAR 2021/03/08 03:30 UTC NOAA

LJPZ 080330Z AUTO 12008KT 9999 NCD M01/M03 Q1018


Station Type Date Time Source
LJPZ Decoded METAR 2021/03/08 03:30 UTC NOAA

Portoroz, Slovenia (LJPZ) 45-31N 013-34E
Mar 07, 2021 - 10:30 PM EST / 2021.03.08 0330 UTC
Wind: from the ESE (120 degrees) at 9 MPH (8 KT):0
Visibility: greater than 7 mile(s):0
Temperature: 30 F (-1 C)
Windchill: 21 F (-6 C):1
Dew Point: 26 F (-3 C)
Relative Humidity: 86%
Pressure (altimeter): 30.06 in. Hg (1018 hPa)
ob: LJPZ 080330Z AUTO 12008KT 9999 NCD M01/M03 Q1018
cycle: 3

Station Type Date Time Source
LJPZ TAF 2020/09/27 12:21 UTC NOAA

TAF TAF LJPZ 271100Z 2712/2821 30003KT 9999 FEW050 PROB30
TEMPO 2712/2718 -SHRA SCT040TCU BKN070
BECMG 2718/2720 06012G25KT RA

Example: see airport list